sensor_id;sensor_type;location;lat;lon;timestamp;temperature;humidity
14405;DHT22;14983;50.866;4.304;2022-07-06T00:00:15;15.70;99.90
14405;DHT22;14983;50.866;4.304;2022-07-06T00:02:43;15.40;99.90
14405;DHT22;14983;50.866;4.304;2022-07-06T00:05:16;15.30;1.00
14405;DHT22;14983;50.866;4.304;2022-07-06T00:07:49;15.40;99.90
14405;DHT22;14983;50.866;4.304;2022-07-06T00:10:17;15.40;1.00
14405;DHT22;14983;50.866;4.304;2022-07-06T00:12:46;15.40;1.00
14405;DHT22;14983;50.866;4.304;2022-07-06T00:15:15;15.40;99.90
14405;DHT22;14983;50.866;4.304;2022-07-06T00:17:43;15.40;99.90
14405;DHT22;14983;50.866;4.304;2022-07-06T00:20:12;15.40;99.90
14405;DHT22;14983;50.866;4.304;2022-07-06T00:22:43;15.40;1.00
14405;DHT22;14983;50.866;4.304;2022-07-06T00:25:10;15.40;99.90
14405;DHT22;14983;50.866;4.304;2022-07-06T00:27:43;15.10;1.00
14405;DHT22;14983;50.866;4.304;2022-07-06T00:30:11;15.10;99.90
14405;DHT22;14983;50.866;4.304;2022-07-06T00:32:45;14.90;1.00
14405;DHT22;14983;50.866;4.304;2022-07-06T00:35:22;14.90;99.90
14405;DHT22;14983;50.866;4.304;2022-07-06T00:38:12;14.80;1.00
14405;DHT22;14983;50.866;4.304;2022-07-06T00:44:07;14.80;1.00
14405;DHT22;14983;50.866;4.304;2022-07-06T00:46:34;14.90;1.00
14405;DHT22;14983;50.866;4.304;2022-07-06T00:49:01;14.90;99.90
14405;DHT22;14983;50.866;4.304;2022-07-06T00:51:36;14.80;1.00
14405;DHT22;14983;50.866;4.304;2022-07-06T00:54:04;14.90;99.90
14405;DHT22;14983;50.866;4.304;2022-07-06T00:56:40;14.80;1.00
14405;DHT22;14983;50.866;4.304;2022-07-06T00:59:09;14.80;1.00
14405;DHT22;14983;50.866;4.304;2022-07-06T01:01:37;14.80;1.00
14405;DHT22;14983;50.866;4.304;2022-07-06T01:04:06;14.90;99.90
14405;DHT22;14983;50.866;4.304;2022-07-06T01:06:48;14.90;99.90
14405;DHT22;14983;50.866;4.304;2022-07-06T01:09:22;14.70;1.00
14405;DHT22;14983;50.866;4.304;2022-07-06T01:11:50;14.70;1.00
14405;DHT22;14983;50.866;4.304;2022-07-06T01:14:21;14.70;1.00
14405;DHT22;14983;50.866;4.304;2022-07-06T01:16:52;14.60;1.00
14405;DHT22;14983;50.866;4.304;2022-07-06T01:19:20;14.60;1.00
14405;DHT22;14983;50.866;4.304;2022-07-06T01:21:49;14.60;1.00
14405;DHT22;14983;50.866;4.304;2022-07-06T01:24:17;14.50;1.00
14405;DHT22;14983;50.866;4.304;2022-07-06T01:26:46;14.40;1.00
14405;DHT22;14983;50.866;4.304;2022-07-06T01:29:15;14.30;51.90
14405;DHT22;14983;50.866;4.304;2022-07-06T01:31:56;14.40;89.70
14405;DHT22;14983;50.866;4.304;2022-07-06T01:34:23;14.40;99.90
14405;DHT22;14983;50.866;4.304;2022-07-06T01:36:59;14.40;72.00
14405;DHT22;14983;50.866;4.304;2022-07-06T01:39:28;14.50;1.00
14405;DHT22;14983;50.866;4.304;2022-07-06T01:41:58;14.40;1.00
14405;DHT22;14983;50.866;4.304;2022-07-06T01:44:25;14.20;1.00
14405;DHT22;14983;50.866;4.304;2022-07-06T01:46:52;14.30;18.60
14405;DHT22;14983;50.866;4.304;2022-07-06T01:49:19;14.30;50.70
14405;DHT22;14983;50.866;4.304;2022-07-06T01:51:46;14.30;56.60
14405;DHT22;14983;50.866;4.304;2022-07-06T01:54:18;14.30;75.00
14405;DHT22;14983;50.866;4.304;2022-07-06T01:56:58;14.10;99.90
14405;DHT22;14983;50.866;4.304;2022-07-06T01:59:55;14.20;99.90
14405;DHT22;14983;50.866;4.304;2022-07-06T02:02:24;14.20;99.90
14405;DHT22;14983;50.866;4.304;2022-07-06T02:04:50;14.10;99.90
14405;DHT22;14983;50.866;4.304;2022-07-06T02:07:35;14.40;99.90
14405;DHT22;14983;50.866;4.304;2022-07-06T02:10:13;14.00;99.90
14405;DHT22;14983;50.866;4.304;2022-07-06T02:12:41;13.80;99.90
14405;DHT22;14983;50.866;4.304;2022-07-06T02:15:16;14.00;99.90
14405;DHT22;14983;50.866;4.304;2022-07-06T02:17:51;13.80;99.90
14405;DHT22;14983;50.866;4.304;2022-07-06T02:20:18;13.80;99.90
14405;DHT22;14983;50.866;4.304;2022-07-06T02:22:48;13.90;99.90
14405;DHT22;14983;50.866;4.304;2022-07-06T02:25:21;13.70;99.90
14405;DHT22;14983;50.866;4.304;2022-07-06T02:27:50;13.70;99.90
14405;DHT22;14983;50.866;4.304;2022-07-06T02:30:22;13.60;99.90
14405;DHT22;14983;50.866;4.304;2022-07-06T02:32:53;13.60;99.90
14405;DHT22;14983;50.866;4.304;2022-07-06T02:35:40;13.60;99.90
14405;DHT22;14983;50.866;4.304;2022-07-06T02:38:09;13.80;99.90
14405;DHT22;14983;50.866;4.304;2022-07-06T02:40:45;13.80;99.90
14405;DHT22;14983;50.866;4.304;2022-07-06T02:43:14;13.80;99.90
14405;DHT22;14983;50.866;4.304;2022-07-06T02:45:41;13.90;99.90
14405;DHT22;14983;50.866;4.304;2022-07-06T02:48:23;13.80;99.90
14405;DHT22;14983;50.866;4.304;2022-07-06T02:50:56;13.80;99.90
14405;DHT22;14983;50.866;4.304;2022-07-06T02:53:32;13.80;99.90
14405;DHT22;14983;50.866;4.304;2022-07-06T02:56:01;13.70;99.90
14405;DHT22;14983;50.866;4.304;2022-07-06T02:58:28;13.60;99.90
14405;DHT22;14983;50.866;4.304;2022-07-06T03:00:58;13.60;99.90
14405;DHT22;14983;50.866;4.304;2022-07-06T03:03:26;13.70;99.90
14405;DHT22;14983;50.866;4.304;2022-07-06T03:05:57;13.70;99.90
14405;DHT22;14983;50.866;4.304;2022-07-06T03:08:40;13.70;99.90
14405;DHT22;14983;50.866;4.304;2022-07-06T03:11:09;13.60;99.90
14405;DHT22;14983;50.866;4.304;2022-07-06T03:13:45;13.60;99.90
14405;DHT22;14983;50.866;4.304;2022-07-06T03:16:12;13.50;99.90
14405;DHT22;14983;50.866;4.304;2022-07-06T03:18:45;13.50;99.90
14405;DHT22;14983;50.866;4.304;2022-07-06T03:21:17;13.50;99.90
14405;DHT22;14983;50.866;4.304;2022-07-06T03:23:45;13.50;99.90
14405;DHT22;14983;50.866;4.304;2022-07-06T03:26:23;13.40;99.90
14405;DHT22;14983;50.866;4.304;2022-07-06T03:28:54;13.40;99.90
14405;DHT22;14983;50.866;4.304;2022-07-06T03:31:29;13.40;99.90
14405;DHT22;14983;50.866;4.304;2022-07-06T03:34:02;13.40;99.90
14405;DHT22;14983;50.866;4.304;2022-07-06T03:36:31;13.40;99.90
14405;DHT22;14983;50.866;4.304;2022-07-06T03:39:00;13.40;99.90
14405;DHT22;14983;50.866;4.304;2022-07-06T03:41:38;13.40;99.90
14405;DHT22;14983;50.866;4.304;2022-07-06T03:44:06;13.40;99.90
14405;DHT22;14983;50.866;4.304;2022-07-06T03:46:41;13.40;99.90
14405;DHT22;14983;50.866;4.304;2022-07-06T03:49:11;13.60;99.90
14405;DHT22;14983;50.866;4.304;2022-07-06T03:51:45;13.60;99.90
14405;DHT22;14983;50.866;4.304;2022-07-06T03:54:15;13.50;99.90
14405;DHT22;14983;50.866;4.304;2022-07-06T03:56:50;13.40;99.90
14405;DHT22;14983;50.866;4.304;2022-07-06T03:59:26;13.30;99.90
14405;DHT22;14983;50.866;4.304;2022-07-06T04:01:54;13.40;99.90
14405;DHT22;14983;50.866;4.304;2022-07-06T04:04:22;13.30;99.90
14405;DHT22;14983;50.866;4.304;2022-07-06T04:06:49;13.40;99.90
14405;DHT22;14983;50.866;4.304;2022-07-06T04:09:28;13.30;99.90
14405;DHT22;14983;50.866;4.304;2022-07-06T04:12:01;13.40;99.90
14405;DHT22;14983;50.866;4.304;2022-07-06T04:14:34;13.40;99.90
14405;DHT22;14983;50.866;4.304;2022-07-06T04:17:08;13.50;99.90
14405;DHT22;14983;50.866;4.304;2022-07-06T04:19:52;13.40;99.90
14405;DHT22;14983;50.866;4.304;2022-07-06T04:22:24;13.40;99.90
14405;DHT22;14983;50.866;4.304;2022-07-06T04:24:56;13.40;99.90
14405;DHT22;14983;50.866;4.304;2022-07-06T04:27:31;13.40;99.90
14405;DHT22;14983;50.866;4.304;2022-07-06T04:29:59;13.40;99.90
14405;DHT22;14983;50.866;4.304;2022-07-06T04:32:27;13.30;99.90
14405;DHT22;14983;50.866;4.304;2022-07-06T04:35:04;13.40;99.90
14405;DHT22;14983;50.866;4.304;2022-07-06T04:37:36;13.40;99.90
14405;DHT22;14983;50.866;4.304;2022-07-06T04:40:07;13.50;99.90
14405;DHT22;14983;50.866;4.304;2022-07-06T04:42:56;13.50;99.90
14405;DHT22;14983;50.866;4.304;2022-07-06T04:45:28;13.60;99.90
14405;DHT22;14983;50.866;4.304;2022-07-06T04:48:05;13.80;99.90
14405;DHT22;14983;50.866;4.304;2022-07-06T04:50:37;13.90;99.90
14405;DHT22;14983;50.866;4.304;2022-07-06T04:56:19;14.00;99.90
14405;DHT22;14983;50.866;4.304;2022-07-06T04:58:53;13.90;99.90
14405;DHT22;14983;50.866;4.304;2022-07-06T05:01:24;14.00;99.90
14405;DHT22;14983;50.866;4.304;2022-07-06T05:04:09;14.10;99.90
14405;DHT22;14983;50.866;4.304;2022-07-06T05:06:39;13.90;99.90
14405;DHT22;14983;50.866;4.304;2022-07-06T05:09:13;13.70;99.90
14405;DHT22;14983;50.866;4.304;2022-07-06T05:11:43;13.70;99.90
14405;DHT22;14983;50.866;4.304;2022-07-06T05:14:13;13.50;99.90
14405;DHT22;14983;50.866;4.304;2022-07-06T05:16:50;13.50;99.90
14405;DHT22;14983;50.866;4.304;2022-07-06T05:19:22;13.60;99.90
14405;DHT22;14983;50.866;4.304;2022-07-06T05:21:50;13.70;99.90
14405;DHT22;14983;50.866;4.304;2022-07-06T05:24:22;13.60;99.90
14405;DHT22;14983;50.866;4.304;2022-07-06T05:26:59;13.70;99.90
14405;DHT22;14983;50.866;4.304;2022-07-06T05:29:39;13.80;99.90
14405;DHT22;14983;50.866;4.304;2022-07-06T05:32:21;14.50;99.90
14405;DHT22;14983;50.866;4.304;2022-07-06T05:34:50;13.90;99.90
14405;DHT22;14983;50.866;4.304;2022-07-06T05:37:20;13.90;99.90
14405;DHT22;14983;50.866;4.304;2022-07-06T05:39:51;13.90;99.90
14405;DHT22;14983;50.866;4.304;2022-07-06T05:42:29;13.90;99.90
14405;DHT22;14983;50.866;4.304;2022-07-06T05:45:00;13.90;99.90
14405;DHT22;14983;50.866;4.304;2022-07-06T05:47:29;14.10;99.90
14405;DHT22;14983;50.866;4.304;2022-07-06T05:50:13;14.30;99.90
14405;DHT22;14983;50.866;4.304;2022-07-06T05:52:54;14.40;99.90
14405;DHT22;14983;50.866;4.304;2022-07-06T05:55:25;14.50;99.90
14405;DHT22;14983;50.866;4.304;2022-07-06T05:57:56;14.60;99.90
14405;DHT22;14983;50.866;4.304;2022-07-06T06:00:28;14.80;99.90
14405;DHT22;14983;50.866;4.304;2022-07-06T06:03:02;14.90;99.90
14405;DHT22;14983;50.866;4.304;2022-07-06T06:05:37;15.00;72.00
14405;DHT22;14983;50.866;4.304;2022-07-06T06:08:04;15.10;5.30
14405;DHT22;14983;50.866;4.304;2022-07-06T06:10:39;15.20;1.00
14405;DHT22;14983;50.866;4.304;2022-07-06T06:13:13;15.30;1.00
14405;DHT22;14983;50.866;4.304;2022-07-06T06:15:44;15.40;1.00
14405;DHT22;14983;50.866;4.304;2022-07-06T06:18:11;15.40;1.00
14405;DHT22;14983;50.866;4.304;2022-07-06T06:20:39;15.50;1.00
14405;DHT22;14983;50.866;4.304;2022-07-06T06:23:08;15.70;1.00
14405;DHT22;14983;50.866;4.304;2022-07-06T06:25:39;15.90;99.90
14405;DHT22;14983;50.866;4.304;2022-07-06T06:28:10;16.10;1.00
14405;DHT22;14983;50.866;4.304;2022-07-06T06:30:55;16.20;1.00
14405;DHT22;14983;50.866;4.304;2022-07-06T06:33:24;16.50;1.00
14405;DHT22;14983;50.866;4.304;2022-07-06T06:35:52;16.90;99.90
14405;DHT22;14983;50.866;4.304;2022-07-06T06:38:23;17.20;99.90
14405;DHT22;14983;50.866;4.304;2022-07-06T06:40:52;17.30;27.00
14405;DHT22;14983;50.866;4.304;2022-07-06T06:43:19;17.50;1.00
14405;DHT22;14983;50.866;4.304;2022-07-06T06:45:48;18.00;67.50
14405;DHT22;14983;50.866;4.304;2022-07-06T06:48:20;18.20;99.90
14405;DHT22;14983;50.866;4.304;2022-07-06T06:50:48;18.10;93.90
14405;DHT22;14983;50.866;4.304;2022-07-06T06:53:14;18.30;99.90
14405;DHT22;14983;50.866;4.304;2022-07-06T06:55:52;18.00;99.90
14405;DHT22;14983;50.866;4.304;2022-07-06T06:58:20;18.10;1.00
14405;DHT22;14983;50.866;4.304;2022-07-06T07:00:57;17.90;99.90
14405;DHT22;14983;50.866;4.304;2022-07-06T07:03:26;18.00;1.00
14405;DHT22;14983;50.866;4.304;2022-07-06T07:05:53;18.00;99.90
14405;DHT22;14983;50.866;4.304;2022-07-06T07:08:20;18.30;99.90
14405;DHT22;14983;50.866;4.304;2022-07-06T07:10:47;18.60;1.00
14405;DHT22;14983;50.866;4.304;2022-07-06T07:13:14;18.70;22.00
14405;DHT22;14983;50.866;4.304;2022-07-06T07:15:45;18.20;99.90
14405;DHT22;14983;50.866;4.304;2022-07-06T07:18:14;17.70;1.00
14405;DHT22;14983;50.866;4.304;2022-07-06T07:20:51;17.40;1.00
14405;DHT22;14983;50.866;4.304;2022-07-06T07:23:21;17.50;1.00
14405;DHT22;14983;50.866;4.304;2022-07-06T07:25:49;17.80;99.90
14405;DHT22;14983;50.866;4.304;2022-07-06T07:28:17;18.30;9.00
14405;DHT22;14983;50.866;4.304;2022-07-06T07:30:45;18.20;1.00
14405;DHT22;14983;50.866;4.304;2022-07-06T07:33:13;18.50;1.00
14405;DHT22;14983;50.866;4.304;2022-07-06T07:35:42;18.70;1.00
14405;DHT22;14983;50.866;4.304;2022-07-06T07:38:18;18.70;1.00
14405;DHT22;14983;50.866;4.304;2022-07-06T07:40:55;18.80;1.00
14405;DHT22;14983;50.866;4.304;2022-07-06T07:43:23;19.30;1.00
14405;DHT22;14983;50.866;4.304;2022-07-06T07:45:54;19.20;1.00
14405;DHT22;14983;50.866;4.304;2022-07-06T07:48:24;18.90;87.60
14405;DHT22;14983;50.866;4.304;2022-07-06T07:50:54;18.70;99.90
14405;DHT22;14983;50.866;4.304;2022-07-06T07:53:27;18.80;99.90
14405;DHT22;14983;50.866;4.304;2022-07-06T07:55:59;18.70;99.90
14405;DHT22;14983;50.866;4.304;2022-07-06T07:58:27;18.60;99.90
14405;DHT22;14983;50.866;4.304;2022-07-06T08:00:55;18.60;99.90
14405;DHT22;14983;50.866;4.304;2022-07-06T08:03:28;18.90;99.90
14405;DHT22;14983;50.866;4.304;2022-07-06T08:06:01;19.00;99.90
14405;DHT22;14983;50.866;4.304;2022-07-06T08:08:38;18.80;99.90
14405;DHT22;14983;50.866;4.304;2022-07-06T08:11:07;18.60;1.00
14405;DHT22;14983;50.866;4.304;2022-07-06T08:13:36;19.00;99.90
14405;DHT22;14983;50.866;4.304;2022-07-06T08:16:14;19.10;99.90
14405;DHT22;14983;50.866;4.304;2022-07-06T08:18:42;19.10;1.00
14405;DHT22;14983;50.866;4.304;2022-07-06T08:21:09;18.90;1.00
14405;DHT22;14983;50.866;4.304;2022-07-06T08:23:38;18.90;1.00
14405;DHT22;14983;50.866;4.304;2022-07-06T08:26:08;18.80;1.00
14405;DHT22;14983;50.866;4.304;2022-07-06T08:28:36;18.90;1.00
14405;DHT22;14983;50.866;4.304;2022-07-06T08:31:06;19.20;1.00
14405;DHT22;14983;50.866;4.304;2022-07-06T08:33:35;19.40;1.00
14405;DHT22;14983;50.866;4.304;2022-07-06T08:36:04;19.80;1.00
14405;DHT22;14983;50.866;4.304;2022-07-06T08:38:38;20.00;99.90
14405;DHT22;14983;50.866;4.304;2022-07-06T08:41:07;19.90;1.00
14405;DHT22;14983;50.866;4.304;2022-07-06T08:43:39;19.40;1.00
14405;DHT22;14983;50.866;4.304;2022-07-06T08:46:08;19.00;1.00
14405;DHT22;14983;50.866;4.304;2022-07-06T08:48:41;19.30;1.00
14405;DHT22;14983;50.866;4.304;2022-07-06T08:51:15;19.20;1.00
14405;DHT22;14983;50.866;4.304;2022-07-06T08:53:47;19.50;1.00
14405;DHT22;14983;50.866;4.304;2022-07-06T08:56:18;19.90;1.00
14405;DHT22;14983;50.866;4.304;2022-07-06T08:58:47;20.00;1.00
14405;DHT22;14983;50.866;4.304;2022-07-06T09:01:21;19.70;1.00
14405;DHT22;14983;50.866;4.304;2022-07-06T09:03:55;19.60;1.00
14405;DHT22;14983;50.866;4.304;2022-07-06T09:06:29;19.80;1.00
14405;DHT22;14983;50.866;4.304;2022-07-06T09:09:06;19.80;1.00
14405;DHT22;14983;50.866;4.304;2022-07-06T09:11:47;19.80;1.00
14405;DHT22;14983;50.866;4.304;2022-07-06T09:14:14;20.40;1.00
14405;DHT22;14983;50.866;4.304;2022-07-06T09:16:45;20.60;99.90
14405;DHT22;14983;50.866;4.304;2022-07-06T09:19:13;20.50;99.90
14405;DHT22;14983;50.866;4.304;2022-07-06T09:21:41;20.70;99.90
14405;DHT22;14983;50.866;4.304;2022-07-06T09:24:11;20.80;99.90
14405;DHT22;14983;50.866;4.304;2022-07-06T09:26:47;21.10;99.90
14405;DHT22;14983;50.866;4.304;2022-07-06T09:29:16;21.40;99.90
14405;DHT22;14983;50.866;4.304;2022-07-06T09:31:56;21.50;99.90
14405;DHT22;14983;50.866;4.304;2022-07-06T09:34:40;21.70;49.20
14405;DHT22;14983;50.866;4.304;2022-07-06T09:37:14;21.80;26.60
14405;DHT22;14983;50.866;4.304;2022-07-06T09:39:49;21.70;13.90
14405;DHT22;14983;50.866;4.304;2022-07-06T09:42:24;21.50;91.80
14405;DHT22;14983;50.866;4.304;2022-07-06T09:45:00;21.10;99.90
14405;DHT22;14983;50.866;4.304;2022-07-06T09:55:22;21.00;99.90
14405;DHT22;14983;50.866;4.304;2022-07-06T09:57:52;21.30;96.20
14405;DHT22;14983;50.866;4.304;2022-07-06T10:00:29;20.80;99.90
14405;DHT22;14983;50.866;4.304;2022-07-06T10:03:00;21.10;99.90
14405;DHT22;14983;50.866;4.304;2022-07-06T10:21:06;21.90;1.00
14405;DHT22;14983;50.866;4.304;2022-07-06T10:23:36;22.30;1.00
14405;DHT22;14983;50.866;4.304;2022-07-06T10:26:06;22.10;1.00
14405;DHT22;14983;50.866;4.304;2022-07-06T10:28:37;21.90;1.00
14405;DHT22;14983;50.866;4.304;2022-07-06T10:31:06;21.90;1.00
14405;DHT22;14983;50.866;4.304;2022-07-06T10:33:35;22.00;1.00
14405;DHT22;14983;50.866;4.304;2022-07-06T10:36:18;22.00;1.00
14405;DHT22;14983;50.866;4.304;2022-07-06T10:38:55;22.30;1.00
14405;DHT22;14983;50.866;4.304;2022-07-06T10:41:33;22.20;1.00
14405;DHT22;14983;50.866;4.304;2022-07-06T10:44:21;22.00;2.30
14405;DHT22;14983;50.866;4.304;2022-07-06T10:46:54;21.30;97.50
14405;DHT22;14983;50.866;4.304;2022-07-06T10:49:22;21.50;99.90
14405;DHT22;14983;50.866;4.304;2022-07-06T10:51:53;21.90;57.90
14405;DHT22;14983;50.866;4.304;2022-07-06T10:54:39;22.00;29.90
14405;DHT22;14983;50.866;4.304;2022-07-06T10:57:10;21.90;81.80
14405;DHT22;14983;50.866;4.304;2022-07-06T11:00:00;22.10;1.00
14405;DHT22;14983;50.866;4.304;2022-07-06T11:02:49;21.90;35.00
14405;DHT22;14983;50.866;4.304;2022-07-06T11:05:45;22.20;1.00
14405;DHT22;14983;50.866;4.304;2022-07-06T11:08:17;22.30;1.00
14405;DHT22;14983;50.866;4.304;2022-07-06T11:10:55;22.70;1.00
14405;DHT22;14983;50.866;4.304;2022-07-06T11:13:59;22.90;1.00
14405;DHT22;14983;50.866;4.304;2022-07-06T11:19:38;22.60;1.00
14405;DHT22;14983;50.866;4.304;2022-07-06T11:22:12;22.60;1.00
14405;DHT22;14983;50.866;4.304;2022-07-06T11:24:56;22.50;1.00
14405;DHT22;14983;50.866;4.304;2022-07-06T11:27:35;21.80;1.00
14405;DHT22;14983;50.866;4.304;2022-07-06T11:30:14;22.30;1.00
14405;DHT22;14983;50.866;4.304;2022-07-06T11:32:58;22.60;1.00
14405;DHT22;14983;50.866;4.304;2022-07-06T11:35:38;22.80;1.00
14405;DHT22;14983;50.866;4.304;2022-07-06T11:38:30;22.90;1.00
14405;DHT22;14983;50.866;4.304;2022-07-06T11:41:06;22.70;1.00
14405;DHT22;14983;50.866;4.304;2022-07-06T11:43:40;22.70;1.00
14405;DHT22;14983;50.866;4.304;2022-07-06T11:46:25;22.70;1.00
14405;DHT22;14983;50.866;4.304;2022-07-06T11:49:07;23.30;1.00
14405;DHT22;14983;50.866;4.304;2022-07-06T11:51:54;23.00;1.00
14405;DHT22;14983;50.866;4.304;2022-07-06T11:54:28;22.70;1.00
14405;DHT22;14983;50.866;4.304;2022-07-06T11:57:12;23.00;1.00
14405;DHT22;14983;50.866;4.304;2022-07-06T11:59:41;23.60;1.00
14405;DHT22;14983;50.866;4.304;2022-07-06T12:02:18;23.90;1.00
14405;DHT22;14983;50.866;4.304;2022-07-06T12:04:58;23.60;1.00
14405;DHT22;14983;50.866;4.304;2022-07-06T12:07:36;23.30;1.00
14405;DHT22;14983;50.866;4.304;2022-07-06T12:10:31;23.10;1.00
14405;DHT22;14983;50.866;4.304;2022-07-06T12:13:11;22.40;1.00
14405;DHT22;14983;50.866;4.304;2022-07-06T12:15:43;22.00;1.00
14405;DHT22;14983;50.866;4.304;2022-07-06T12:18:17;22.50;1.00
14405;DHT22;14983;50.866;4.304;2022-07-06T12:20:53;22.50;1.00
14405;DHT22;14983;50.866;4.304;2022-07-06T12:23:23;22.90;1.00
14405;DHT22;14983;50.866;4.304;2022-07-06T12:26:00;23.50;1.00
14405;DHT22;14983;50.866;4.304;2022-07-06T12:28:31;23.80;1.00
14405;DHT22;14983;50.866;4.304;2022-07-06T12:31:02;24.10;1.00
14405;DHT22;14983;50.866;4.304;2022-07-06T12:33:33;24.20;1.00
14405;DHT22;14983;50.866;4.304;2022-07-06T12:36:14;24.20;1.00
14405;DHT22;14983;50.866;4.304;2022-07-06T12:38:45;24.40;1.00
14405;DHT22;14983;50.866;4.304;2022-07-06T12:41:31;24.80;1.00
14405;DHT22;14983;50.866;4.304;2022-07-06T12:44:09;25.70;1.00
14405;DHT22;14983;50.866;4.304;2022-07-06T12:46:37;27.00;99.90
14405;DHT22;14983;50.866;4.304;2022-07-06T12:49:18;28.00;99.90
14405;DHT22;14983;50.866;4.304;2022-07-06T12:52:00;26.80;99.90
14405;DHT22;14983;50.866;4.304;2022-07-06T12:54:30;25.90;99.90
14405;DHT22;14983;50.866;4.304;2022-07-06T12:57:05;24.60;99.90
14405;DHT22;14983;50.866;4.304;2022-07-06T12:59:36;23.40;1.00
14405;DHT22;14983;50.866;4.304;2022-07-06T13:02:05;24.40;1.00
14405;DHT22;14983;50.866;4.304;2022-07-06T13:04:35;25.70;99.90
14405;DHT22;14983;50.866;4.304;2022-07-06T13:07:04;25.50;99.90
14405;DHT22;14983;50.866;4.304;2022-07-06T13:09:46;24.40;1.00
14405;DHT22;14983;50.866;4.304;2022-07-06T13:12:16;24.30;1.00
14405;DHT22;14983;50.866;4.304;2022-07-06T13:15:00;24.20;1.00
14405;DHT22;14983;50.866;4.304;2022-07-06T13:17:32;23.60;1.00
14405;DHT22;14983;50.866;4.304;2022-07-06T13:20:16;23.80;1.00
14405;DHT22;14983;50.866;4.304;2022-07-06T13:22:45;24.90;1.00
14405;DHT22;14983;50.866;4.304;2022-07-06T13:25:18;25.10;1.00
14405;DHT22;14983;50.866;4.304;2022-07-06T13:27:47;25.10;1.00
14405;DHT22;14983;50.866;4.304;2022-07-06T13:30:21;25.80;99.90
14405;DHT22;14983;50.866;4.304;2022-07-06T13:32:48;25.10;99.90
14405;DHT22;14983;50.866;4.304;2022-07-06T13:35:23;24.80;1.00
14405;DHT22;14983;50.866;4.304;2022-07-06T13:37:50;24.50;99.90
14405;DHT22;14983;50.866;4.304;2022-07-06T13:40:18;25.20;99.90
14405;DHT22;14983;50.866;4.304;2022-07-06T13:42:53;25.50;99.90
14405;DHT22;14983;50.866;4.304;2022-07-06T13:45:22;27.10;99.90
14405;DHT22;14983;50.866;4.304;2022-07-06T13:47:51;26.50;99.90
14405;DHT22;14983;50.866;4.304;2022-07-06T13:50:18;26.90;99.90
14405;DHT22;14983;50.866;4.304;2022-07-06T13:52:45;27.70;99.90
14405;DHT22;14983;50.866;4.304;2022-07-06T13:55:12;26.40;99.90
14405;DHT22;14983;50.866;4.304;2022-07-06T13:57:40;25.90;99.90
14405;DHT22;14983;50.866;4.304;2022-07-06T14:00:14;24.50;99.90
14405;DHT22;14983;50.866;4.304;2022-07-06T14:02:45;24.40;99.90
14405;DHT22;14983;50.866;4.304;2022-07-06T14:05:15;24.40;99.90
14405;DHT22;14983;50.866;4.304;2022-07-06T14:07:43;24.70;1.00
14405;DHT22;14983;50.866;4.304;2022-07-06T14:10:12;24.10;1.00
14405;DHT22;14983;50.866;4.304;2022-07-06T14:12:48;24.00;1.00
14405;DHT22;14983;50.866;4.304;2022-07-06T14:15:15;23.90;1.00
14405;DHT22;14983;50.866;4.304;2022-07-06T14:17:43;24.40;1.00
14405;DHT22;14983;50.866;4.304;2022-07-06T14:20:12;24.10;1.00
14405;DHT22;14983;50.866;4.304;2022-07-06T14:22:39;23.70;1.00
14405;DHT22;14983;50.866;4.304;2022-07-06T14:25:06;24.30;1.00
14405;DHT22;14983;50.866;4.304;2022-07-06T14:27:34;24.60;1.00
14405;DHT22;14983;50.866;4.304;2022-07-06T14:30:03;24.90;1.00
14405;DHT22;14983;50.866;4.304;2022-07-06T14:32:31;25.40;99.90
14405;DHT22;14983;50.866;4.304;2022-07-06T14:34:57;24.20;1.00
14405;DHT22;14983;50.866;4.304;2022-07-06T14:37:27;24.00;1.00
14405;DHT22;14983;50.866;4.304;2022-07-06T14:39:54;24.70;1.00
14405;DHT22;14983;50.866;4.304;2022-07-06T14:42:21;26.10;99.90
14405;DHT22;14983;50.866;4.304;2022-07-06T14:44:49;27.40;99.90
14405;DHT22;14983;50.866;4.304;2022-07-06T14:47:22;28.20;99.90
14405;DHT22;14983;50.866;4.304;2022-07-06T14:49:49;28.60;99.90
14405;DHT22;14983;50.866;4.304;2022-07-06T14:52:19;28.30;99.90
14405;DHT22;14983;50.866;4.304;2022-07-06T14:54:53;28.20;99.90
14405;DHT22;14983;50.866;4.304;2022-07-06T14:57:25;27.70;99.90
14405;DHT22;14983;50.866;4.304;2022-07-06T14:59:52;26.80;99.90
14405;DHT22;14983;50.866;4.304;2022-07-06T15:02:25;26.60;99.90
14405;DHT22;14983;50.866;4.304;2022-07-06T15:04:52;27.10;99.90
14405;DHT22;14983;50.866;4.304;2022-07-06T15:07:23;27.20;99.90
14405;DHT22;14983;50.866;4.304;2022-07-06T15:09:54;27.20;99.90
14405;DHT22;14983;50.866;4.304;2022-07-06T15:12:23;28.20;99.90
14405;DHT22;14983;50.866;4.304;2022-07-06T15:14:50;28.20;99.90
14405;DHT22;14983;50.866;4.304;2022-07-06T15:17:18;27.00;99.90
14405;DHT22;14983;50.866;4.304;2022-07-06T15:19:51;26.30;99.90
14405;DHT22;14983;50.866;4.304;2022-07-06T15:22:18;26.10;99.90
14405;DHT22;14983;50.866;4.304;2022-07-06T15:24:49;26.00;99.90
14405;DHT22;14983;50.866;4.304;2022-07-06T15:27:17;25.20;99.90
14405;DHT22;14983;50.866;4.304;2022-07-06T15:29:51;24.60;99.90
14405;DHT22;14983;50.866;4.304;2022-07-06T15:32:35;24.10;1.00
14405;DHT22;14983;50.866;4.304;2022-07-06T15:35:07;24.00;1.00
14405;DHT22;14983;50.866;4.304;2022-07-06T15:37:34;24.20;1.00
14405;DHT22;14983;50.866;4.304;2022-07-06T15:40:03;24.30;1.00
14405;DHT22;14983;50.866;4.304;2022-07-06T15:42:45;24.10;1.00
14405;DHT22;14983;50.866;4.304;2022-07-06T15:45:14;23.90;1.00
14405;DHT22;14983;50.866;4.304;2022-07-06T15:47:44;23.80;1.00
14405;DHT22;14983;50.866;4.304;2022-07-06T15:50:11;24.20;1.00
14405;DHT22;14983;50.866;4.304;2022-07-06T15:52:38;24.20;1.00
14405;DHT22;14983;50.866;4.304;2022-07-06T15:55:10;23.90;1.00
14405;DHT22;14983;50.866;4.304;2022-07-06T15:57:37;24.60;1.00
14405;DHT22;14983;50.866;4.304;2022-07-06T16:00:06;25.10;1.00
14405;DHT22;14983;50.866;4.304;2022-07-06T16:02:34;25.00;1.00
14405;DHT22;14983;50.866;4.304;2022-07-06T16:05:01;24.60;1.00
14405;DHT22;14983;50.866;4.304;2022-07-06T16:07:28;25.30;1.00
14405;DHT22;14983;50.866;4.304;2022-07-06T16:09:55;25.30;99.90
14405;DHT22;14983;50.866;4.304;2022-07-06T16:12:22;25.10;1.00
14405;DHT22;14983;50.866;4.304;2022-07-06T16:14:49;24.80;1.00
14405;DHT22;14983;50.866;4.304;2022-07-06T16:17:18;24.60;1.00
14405;DHT22;14983;50.866;4.304;2022-07-06T16:19:45;24.60;1.00
14405;DHT22;14983;50.866;4.304;2022-07-06T16:22:12;24.50;1.00
14405;DHT22;14983;50.866;4.304;2022-07-06T16:24:40;24.10;1.00
14405;DHT22;14983;50.866;4.304;2022-07-06T16:27:07;24.00;1.00
14405;DHT22;14983;50.866;4.304;2022-07-06T16:29:34;24.00;1.00
14405;DHT22;14983;50.866;4.304;2022-07-06T16:32:04;24.00;1.00
14405;DHT22;14983;50.866;4.304;2022-07-06T16:34:33;24.10;1.00
14405;DHT22;14983;50.866;4.304;2022-07-06T16:37:00;24.10;1.00
14405;DHT22;14983;50.866;4.304;2022-07-06T16:39:28;24.70;1.00
14405;DHT22;14983;50.866;4.304;2022-07-06T16:41:55;24.60;1.00